Lapel, Indiana
Current Conditions -  °F | °C
As of 11:15 PM on Tuesday 21 Oct 2014 (Local Time) from KMQJ Reporting Station
Overcast Overcast  
Wind Chill: 45°   Ceiling: 4500
Heat Index: 48°   Visibility: 10mi
Dew Point: 36°   Wind: 8mph
Humidity: 62%   Direction: 40°NE
Pressure: 30.21"   Gusts: NA
Location:  40.07°N, 85.85°W
Report Text: KMQJ 220315Z AUTO 04007KT 10SM OVC045 09/02 A3021 RMK AO1
Loading
Personal Weather Stations






























Interactive Weather Map
Tropical Storm Tracking
New forecast layout! Learn more

10-Day Weather Forecast

Advertisements
Track Severe Weather on mobile